createdAt,value
2018-05-11T00:00:05.263Z,8.03
2018-05-11T00:02:33.471Z,6.67
2018-05-11T00:05:00.945Z,7.83
2018-05-11T00:07:28.389Z,10.00
2018-05-11T00:09:55.841Z,9.80
2018-05-11T00:12:24.064Z,7.10
2018-05-11T00:14:51.502Z,6.93
2018-05-11T00:17:18.947Z,8.03
2018-05-11T00:19:46.385Z,8.87
2018-05-11T00:22:13.834Z,6.90
2018-05-11T00:24:41.278Z,7.40
2018-05-11T00:27:08.725Z,6.93
2018-05-11T00:29:36.183Z,7.03
2018-05-11T00:32:03.734Z,9.40
2018-05-11T00:34:31.173Z,8.00
2018-05-11T00:36:58.615Z,7.43
2018-05-11T00:39:26.069Z,8.53
2018-05-11T00:41:53.511Z,8.90
2018-05-11T00:44:20.958Z,7.30
2018-05-11T00:46:49.177Z,5.20
2018-05-11T00:49:16.631Z,7.50
2018-05-11T00:51:44.078Z,6.63
2018-05-11T00:54:11.539Z,9.10
2018-05-11T00:56:38.965Z,5.30
2018-05-11T00:59:06.428Z,8.63
2018-05-11T01:01:33.935Z,7.00
2018-05-11T01:04:01.411Z,6.67
2018-05-11T01:06:28.870Z,7.20
2018-05-11T01:08:57.079Z,7.43
2018-05-11T01:11:24.538Z,7.70
2018-05-11T01:13:52.000Z,6.60
2018-05-11T01:16:19.450Z,7.30
2018-05-11T01:18:47.648Z,6.70
2018-05-11T01:21:15.109Z,8.33
2018-05-11T01:23:42.550Z,7.07
2018-05-11T01:26:09.998Z,9.33
2018-05-11T01:28:37.445Z,5.60
2018-05-11T01:31:04.899Z,6.67
2018-05-11T01:33:32.333Z,7.30
2018-05-11T01:35:59.790Z,5.93
2018-05-11T01:38:27.247Z,5.13
2018-05-11T01:40:54.701Z,10.17
2018-05-11T01:43:22.135Z,6.27
2018-05-11T01:45:49.577Z,4.97
2018-05-11T01:48:17.037Z,6.60
2018-05-11T01:50:45.253Z,9.10
2018-05-11T01:53:12.708Z,7.20
2018-05-11T01:55:40.142Z,5.70
2018-05-11T01:58:07.591Z,7.87
2018-05-11T02:00:35.037Z,6.30
2018-05-11T02:03:02.484Z,10.40
2018-05-11T02:05:29.918Z,5.50
2018-05-11T02:07:57.368Z,6.33
2018-05-11T02:10:24.813Z,7.77
2018-05-11T02:12:52.268Z,7.83
2018-05-11T02:15:19.713Z,8.80
2018-05-11T02:17:47.150Z,6.90
2018-05-11T02:20:14.594Z,5.27
2018-05-11T02:22:42.059Z,5.43
2018-05-11T02:25:11.297Z,6.97
2018-05-11T02:27:38.742Z,9.23
2018-05-11T02:30:06.183Z,7.50
2018-05-11T02:32:33.625Z,7.00
2018-05-11T02:35:01.066Z,7.60
2018-05-11T02:37:28.515Z,6.50
2018-05-11T02:39:55.967Z,5.47
2018-05-11T02:42:23.417Z,6.50
2018-05-11T02:44:50.871Z,5.33
2018-05-11T02:47:19.075Z,6.57
2018-05-11T02:49:46.546Z,6.13
2018-05-11T02:52:13.984Z,5.70
2018-05-11T02:54:45.207Z,5.53
2018-05-11T02:57:12.630Z,6.30
2018-05-11T02:59:40.071Z,5.90
2018-05-11T03:02:07.509Z,7.90
2018-05-11T03:04:34.979Z,5.43
2018-05-11T03:07:02.418Z,7.97
2018-05-11T03:09:30.502Z,7.63
2018-05-11T03:11:57.943Z,5.43
2018-05-11T03:14:25.374Z,5.63
2018-05-11T03:16:52.825Z,8.60
2018-05-11T03:19:20.289Z,6.83
2018-05-11T03:21:48.505Z,5.77
2018-05-11T03:24:15.964Z,6.80
2018-05-11T03:26:43.405Z,8.73
2018-05-11T03:29:10.859Z,5.93
2018-05-11T03:31:38.345Z,7.23
2018-05-11T03:34:05.791Z,7.50
2018-05-11T03:36:33.249Z,7.57
2018-05-11T03:39:00.721Z,6.43
2018-05-11T03:41:28.167Z,9.17
2018-05-11T03:43:55.616Z,7.70
2018-05-11T03:46:23.085Z,5.73
2018-05-11T03:48:50.541Z,6.57
2018-05-11T03:51:17.994Z,7.03
2018-05-11T03:53:45.458Z,8.87
2018-05-11T03:56:12.903Z,6.77
2018-05-11T03:58:40.365Z,8.90
2018-05-11T04:01:19.872Z,9.60
2018-05-11T04:03:59.095Z,8.10
2018-05-11T04:09:31.950Z,9.67
2018-05-11T04:11:59.409Z,10.53
2018-05-11T04:14:26.862Z,6.47
2018-05-11T04:16:54.308Z,8.27
2018-05-11T04:19:21.770Z,6.83
2018-05-11T04:21:49.229Z,8.00
2018-05-11T04:24:16.680Z,6.57
2018-05-11T04:26:44.878Z,7.83
2018-05-11T04:29:12.326Z,7.17
2018-05-11T04:31:39.773Z,7.73
2018-05-11T04:34:07.254Z,8.33
2018-05-11T04:36:35.467Z,5.67
2018-05-11T04:39:02.902Z,8.70
2018-05-11T04:41:30.360Z,10.30
2018-05-11T04:43:57.816Z,9.87
2018-05-11T04:46:25.260Z,9.37
2018-05-11T04:48:52.701Z,9.00
2018-05-11T04:51:20.142Z,9.23
2018-05-11T04:53:47.881Z,7.93
2018-05-11T04:56:15.334Z,7.80
2018-05-11T04:58:42.770Z,9.00
2018-05-11T05:01:10.221Z,8.43
2018-05-11T05:03:37.662Z,7.43
2018-05-11T05:06:05.135Z,7.90
2018-05-11T05:08:33.361Z,9.43
2018-05-11T05:11:00.811Z,10.87
2018-05-11T05:13:28.251Z,7.03
2018-05-11T05:15:55.689Z,10.13
2018-05-11T05:18:23.190Z,9.80
2018-05-11T05:20:51.849Z,8.03
2018-05-11T05:23:20.078Z,10.97
2018-05-11T05:25:47.528Z,8.37
2018-05-11T05:28:15.007Z,11.03
2018-05-11T05:30:42.446Z,9.10
2018-05-11T05:33:09.943Z,11.77
2018-05-11T05:35:38.133Z,8.40
2018-05-11T05:38:06.330Z,8.27
2018-05-11T05:40:33.790Z,11.00
2018-05-11T05:43:01.258Z,9.80
2018-05-11T05:45:28.786Z,7.90
2018-05-11T05:47:56.149Z,10.47
2018-05-11T05:50:23.624Z,11.53
2018-05-11T05:52:51.839Z,8.27
2018-05-11T05:55:19.296Z,10.20
2018-05-11T05:57:46.798Z,12.77
2018-05-11T06:00:14.310Z,12.97
2018-05-11T06:02:42.522Z,9.70
2018-05-11T06:05:09.975Z,12.93
2018-05-11T06:07:38.237Z,9.20
2018-05-11T06:10:05.673Z,13.93
2018-05-11T06:12:33.110Z,10.57
2018-05-11T06:15:00.586Z,14.77
2018-05-11T06:17:28.793Z,16.30
2018-05-11T06:19:56.386Z,10.20
2018-05-11T06:22:23.843Z,13.47
2018-05-11T06:24:52.144Z,10.90
2018-05-11T06:27:19.510Z,14.13
2018-05-11T06:29:46.971Z,11.83
2018-05-11T06:32:14.423Z,12.43
2018-05-11T06:34:41.857Z,12.83
2018-05-11T06:37:09.308Z,12.60
2018-05-11T06:39:37.559Z,10.90
2018-05-11T06:42:05.554Z,10.97
2018-05-11T06:44:33.836Z,13.17
2018-05-11T06:47:01.320Z,9.67
2018-05-11T06:49:28.763Z,12.83
2018-05-11T06:51:56.227Z,13.90
2018-05-11T06:54:24.538Z,12.80
2018-05-11T06:56:51.982Z,16.20
2018-05-11T06:59:19.440Z,16.57
2018-05-11T07:01:46.958Z,27.20
2018-05-11T07:04:14.415Z,33.87
2018-05-11T07:06:41.867Z,15.20
2018-05-11T07:09:09.352Z,17.00
2018-05-11T07:11:37.577Z,17.90
2018-05-11T07:14:05.058Z,15.53
2018-05-11T07:16:32.521Z,23.27
2018-05-11T07:18:59.995Z,17.13
2018-05-11T07:21:27.455Z,20.07
2018-05-11T07:23:54.980Z,17.50
2018-05-11T07:26:22.434Z,20.47
2018-05-11T07:28:50.106Z,15.20
2018-05-11T07:31:17.563Z,19.17
2018-05-11T07:33:45.018Z,18.47
2018-05-11T07:36:13.247Z,23.23
2018-05-11T07:38:40.761Z,24.73
2018-05-11T07:41:08.214Z,15.90
2018-05-11T07:43:35.726Z,18.13
2018-05-11T07:46:03.196Z,17.00
2018-05-11T07:48:30.677Z,21.90
2018-05-11T07:50:58.916Z,16.13
2018-05-11T07:53:26.375Z,16.27
2018-05-11T07:55:53.822Z,18.87
2018-05-11T07:58:21.271Z,20.83
2018-05-11T08:00:49.504Z,19.93
2018-05-11T08:05:50.894Z,19.87
2018-05-11T08:08:18.378Z,17.23
2018-05-11T08:10:45.832Z,17.00
2018-05-11T08:13:13.277Z,21.80
2018-05-11T08:15:40.760Z,19.30
2018-05-11T08:18:08.975Z,18.17
2018-05-11T08:20:36.427Z,20.13
2018-05-11T08:23:03.895Z,15.63
2018-05-11T08:25:31.347Z,19.10
2018-05-11T08:27:58.807Z,20.10
2018-05-11T08:30:26.270Z,13.50
2018-05-11T08:32:53.694Z,12.70
2018-05-11T08:35:21.187Z,17.20
2018-05-11T08:37:48.637Z,14.73
2018-05-11T08:40:16.093Z,17.30
2018-05-11T08:42:44.374Z,15.10
2018-05-11T08:45:11.842Z,12.63
2018-05-11T08:47:39.316Z,15.50
2018-05-11T08:50:06.806Z,17.73
2018-05-11T08:52:35.007Z,16.27
2018-05-11T08:55:02.452Z,17.03
2018-05-11T08:57:29.934Z,16.57
2018-05-11T08:59:57.457Z,16.77
2018-05-11T09:02:25.019Z,19.67
2018-05-11T09:04:52.611Z,20.40
2018-05-11T09:07:20.059Z,16.20
2018-05-11T09:09:47.606Z,15.50
2018-05-11T09:12:15.048Z,16.47
2018-05-11T09:14:42.499Z,21.33
2018-05-11T09:17:09.971Z,21.47
2018-05-11T09:19:37.427Z,19.13
2018-05-11T09:22:04.893Z,16.93
2018-05-11T09:24:32.338Z,21.20
2018-05-11T09:26:59.800Z,18.63
2018-05-11T09:29:27.316Z,21.30
2018-05-11T09:31:54.935Z,20.77
2018-05-11T09:34:22.974Z,23.20
2018-05-11T09:36:50.439Z,18.33
2018-05-11T09:39:17.892Z,17.47
2018-05-11T09:41:46.102Z,17.33
2018-05-11T09:44:13.555Z,18.33
2018-05-11T09:46:41.014Z,17.37
2018-05-11T09:49:08.471Z,18.90
2018-05-11T09:51:36.069Z,18.73
2018-05-11T09:54:03.530Z,19.20
2018-05-11T09:56:30.994Z,17.63
2018-05-11T09:58:58.977Z,20.93
2018-05-11T10:01:26.452Z,17.47
2018-05-11T10:03:53.905Z,20.70
2018-05-11T10:06:21.346Z,15.57
2018-05-11T10:08:48.815Z,17.40
2018-05-11T10:11:16.285Z,22.07
2018-05-11T10:13:44.530Z,24.97
2018-05-11T10:16:11.986Z,20.70
2018-05-11T10:18:40.237Z,18.50
2018-05-11T10:21:07.693Z,20.37
2018-05-11T10:23:35.902Z,18.10
2018-05-11T10:26:03.403Z,18.10
2018-05-11T10:28:30.836Z,22.30
2018-05-11T10:30:59.083Z,19.63
2018-05-11T10:33:26.527Z,19.90
2018-05-11T10:35:53.986Z,25.50
2018-05-11T10:38:22.221Z,15.93
2018-05-11T10:40:49.675Z,15.47
2018-05-11T10:43:17.130Z,15.50
2018-05-11T10:45:44.616Z,14.00
2018-05-11T10:48:12.081Z,18.80
2018-05-11T10:50:39.538Z,19.73
2018-05-11T10:53:06.998Z,16.03
2018-05-11T10:55:35.211Z,14.90
2018-05-11T10:58:11.563Z,18.50
2018-05-11T11:00:39.009Z,16.80
2018-05-11T11:03:06.454Z,18.80
2018-05-11T11:05:33.922Z,16.93
2018-05-11T11:08:02.438Z,22.40
2018-05-11T11:10:29.889Z,20.73
2018-05-11T11:12:57.339Z,22.47
2018-05-11T11:15:24.797Z,15.93
2018-05-11T11:17:52.257Z,20.33
2018-05-11T11:20:19.845Z,18.43
2018-05-11T11:22:47.364Z,16.90
2018-05-11T11:25:15.901Z,18.43
2018-05-11T11:27:43.504Z,17.97
2018-05-11T11:30:12.414Z,19.50
2018-05-11T11:32:39.889Z,21.53
2018-05-11T11:35:07.330Z,19.53
2018-05-11T11:37:35.215Z,21.30
2018-05-11T11:40:03.420Z,23.00
2018-05-11T11:42:30.870Z,22.90
2018-05-11T11:44:58.358Z,22.20
2018-05-11T11:47:26.572Z,19.03
2018-05-11T11:52:27.848Z,19.70
2018-05-11T11:54:57.478Z,22.70
2018-05-11T11:57:25.035Z,20.77
2018-05-11T11:59:53.393Z,21.80
2018-05-11T12:02:20.849Z,23.40
2018-05-11T12:04:48.302Z,22.47
2018-05-11T12:07:15.730Z,20.70
2018-05-11T12:09:43.193Z,22.03
2018-05-11T12:12:10.668Z,28.03
2018-05-11T12:14:38.106Z,23.90
2018-05-11T12:17:06.328Z,23.40
2018-05-11T12:19:33.801Z,21.27
2018-05-11T12:22:02.011Z,25.03
2018-05-11T12:24:29.470Z,21.77
2018-05-11T12:26:56.909Z,25.27
2018-05-11T12:29:24.404Z,26.10
2018-05-11T12:31:52.612Z,25.53
2018-05-11T12:34:20.063Z,25.67
2018-05-11T12:36:47.646Z,24.83
2018-05-11T12:39:15.867Z,23.60
2018-05-11T12:41:43.305Z,24.43
2018-05-11T12:44:10.748Z,23.30
2018-05-11T12:46:38.267Z,22.50
2018-05-11T12:49:05.673Z,25.10
2018-05-11T12:51:33.122Z,29.23
2018-05-11T12:54:01.330Z,25.63
2018-05-11T12:56:28.778Z,25.20
2018-05-11T12:58:56.227Z,24.50
2018-05-11T13:01:23.682Z,23.93
2018-05-11T13:03:52.466Z,24.30
2018-05-11T13:06:19.920Z,26.57
2018-05-11T13:08:47.381Z,26.93
2018-05-11T13:11:15.590Z,27.17
2018-05-11T13:13:43.042Z,24.33
2018-05-11T13:16:11.291Z,29.83
2018-05-11T13:18:38.734Z,27.53
2018-05-11T13:21:06.938Z,28.77
2018-05-11T13:23:34.384Z,27.73
2018-05-11T13:26:02.606Z,27.70
2018-05-11T13:28:30.062Z,29.43
2018-05-11T13:30:57.534Z,26.30
2018-05-11T13:33:25.742Z,26.93
2018-05-11T13:35:53.209Z,25.70
2018-05-11T13:38:20.668Z,24.63
2018-05-11T13:40:48.127Z,24.23
2018-05-11T13:43:16.431Z,22.03
2018-05-11T13:45:44.951Z,23.23
2018-05-11T13:48:12.416Z,22.90
2018-05-11T13:50:39.870Z,24.10
2018-05-11T13:53:07.349Z,23.83
2018-05-11T13:55:34.803Z,24.87
2018-05-11T13:58:02.263Z,25.00
2018-05-11T14:00:30.502Z,24.17
2018-05-11T14:02:57.958Z,24.60
2018-05-11T14:05:26.175Z,25.37
2018-05-11T14:07:53.674Z,21.07
2018-05-11T14:10:23.456Z,23.10
2018-05-11T14:12:50.897Z,24.10
2018-05-11T14:15:18.350Z,23.83
2018-05-11T14:17:45.885Z,24.03
2018-05-11T14:20:13.311Z,22.17
2018-05-11T14:22:42.263Z,25.90
2018-05-11T14:25:09.716Z,21.37
2018-05-11T14:27:37.154Z,24.40
2018-05-11T14:30:04.702Z,23.10
2018-05-11T14:32:32.142Z,20.80
2018-05-11T14:34:59.601Z,22.63
2018-05-11T14:37:27.050Z,22.50
2018-05-11T14:39:54.518Z,21.10
2018-05-11T14:42:21.969Z,19.77
2018-05-11T14:44:50.186Z,19.70
2018-05-11T14:47:17.629Z,20.53
2018-05-11T14:49:45.237Z,17.40
2018-05-11T14:52:12.663Z,17.97
2018-05-11T14:54:40.893Z,15.07
2018-05-11T14:57:08.700Z,18.40
2018-05-11T14:59:36.138Z,20.73
2018-05-11T15:02:03.603Z,19.33
2018-05-11T15:04:31.120Z,19.80
2018-05-11T15:06:59.330Z,18.63
2018-05-11T15:09:26.790Z,17.70
2018-05-11T15:11:54.305Z,17.77
2018-05-11T15:14:21.739Z,15.93
2018-05-11T15:16:49.211Z,16.80
2018-05-11T15:19:16.657Z,18.13
2018-05-11T15:21:44.200Z,18.97
2018-05-11T15:24:11.634Z,17.03
2018-05-11T15:26:39.085Z,17.07
2018-05-11T15:29:06.534Z,16.40
2018-05-11T15:31:33.994Z,17.23
2018-05-11T15:34:02.195Z,16.07
2018-05-11T15:36:29.662Z,18.83
2018-05-11T15:38:57.102Z,17.10
2018-05-11T15:41:24.547Z,19.67
2018-05-11T15:43:52.009Z,17.87
2018-05-11T15:46:19.459Z,17.30
2018-05-11T15:48:47.698Z,16.07
2018-05-11T15:51:15.122Z,14.60
2018-05-11T15:53:42.619Z,14.13
2018-05-11T15:56:10.845Z,16.33
2018-05-11T15:58:38.293Z,14.97
2018-05-11T16:01:05.744Z,13.47
2018-05-11T16:03:33.199Z,16.93
2018-05-11T16:06:01.418Z,17.03
2018-05-11T16:08:28.890Z,16.37
2018-05-11T16:10:56.334Z,14.47
2018-05-11T16:13:23.800Z,19.47
2018-05-11T16:15:52.031Z,14.50
2018-05-11T16:18:19.502Z,14.53
2018-05-11T16:20:47.026Z,15.87
2018-05-11T16:23:14.566Z,14.93
2018-05-11T16:25:42.065Z,14.67
2018-05-11T16:28:09.518Z,12.57
2018-05-11T16:30:36.974Z,12.27
2018-05-11T16:33:04.438Z,15.67
2018-05-11T16:35:31.951Z,13.33
2018-05-11T16:37:59.414Z,16.40
2018-05-11T16:40:26.892Z,13.67
2018-05-11T16:42:54.319Z,17.30
2018-05-11T16:45:21.782Z,15.60
2018-05-11T16:47:50.071Z,14.17
2018-05-11T16:50:17.515Z,13.30
2018-05-11T16:52:44.977Z,14.30
2018-05-11T16:55:12.440Z,15.17
2018-05-11T16:57:39.882Z,13.50
2018-05-11T17:00:07.342Z,17.87
2018-05-11T17:02:34.805Z,14.07
2018-05-11T17:05:03.008Z,14.37
2018-05-11T17:07:30.491Z,17.47
2018-05-11T17:09:57.936Z,15.83
2018-05-11T17:12:26.163Z,17.37
2018-05-11T17:14:53.690Z,14.83
2018-05-11T17:17:21.127Z,13.27
2018-05-11T17:19:48.590Z,14.27
2018-05-11T17:22:16.043Z,13.27
2018-05-11T17:24:43.490Z,13.53
2018-05-11T17:27:10.967Z,17.03
2018-05-11T17:29:38.412Z,17.70
2018-05-11T17:32:06.641Z,20.10
2018-05-11T17:34:34.095Z,22.00
2018-05-11T17:37:01.552Z,20.60
2018-05-11T17:39:29.766Z,20.50
2018-05-11T17:41:57.227Z,17.67
2018-05-11T17:44:24.682Z,19.30
2018-05-11T17:46:52.121Z,20.40
2018-05-11T17:49:19.626Z,21.53
2018-05-11T17:51:47.067Z,26.73
2018-05-11T17:54:14.523Z,27.90
2018-05-11T17:56:41.961Z,28.50
2018-05-11T17:59:09.988Z,23.13
2018-05-11T18:01:37.427Z,25.70
2018-05-11T18:04:04.881Z,25.27
2018-05-11T18:06:32.326Z,23.70
2018-05-11T18:08:59.795Z,24.20
2018-05-11T18:11:27.238Z,25.60
2018-05-11T18:13:54.694Z,23.30
2018-05-11T18:16:22.139Z,22.97
2018-05-11T18:18:49.679Z,26.03
2018-05-11T18:21:17.138Z,28.87
2018-05-11T18:23:44.594Z,24.50
2018-05-11T18:26:12.796Z,23.93
2018-05-11T18:28:40.266Z,26.30
2018-05-11T18:31:07.726Z,22.27
2018-05-11T18:33:35.183Z,24.47
2018-05-11T18:36:03.406Z,24.70
2018-05-11T18:38:30.886Z,26.87
2018-05-11T18:40:59.095Z,26.60
2018-05-11T18:43:26.539Z,27.37
2018-05-11T18:45:54.009Z,25.70
2018-05-11T18:48:21.442Z,28.00
2018-05-11T18:50:48.912Z,28.50
2018-05-11T18:53:16.663Z,29.20
2018-05-11T18:55:43.830Z,27.80
2018-05-11T18:58:11.328Z,28.47
2018-05-11T19:00:38.777Z,27.30
2018-05-11T19:03:06.233Z,32.10
2018-05-11T19:05:33.678Z,29.57
2018-05-11T19:08:01.907Z,32.97
2018-05-11T19:10:29.399Z,28.67
2018-05-11T19:12:57.598Z,34.70
2018-05-11T19:15:25.043Z,31.07
2018-05-11T19:17:52.501Z,29.13
2018-05-11T19:20:19.947Z,29.90
2018-05-11T19:22:47.393Z,29.63
2018-05-11T19:25:14.905Z,29.20
2018-05-11T19:27:42.353Z,30.27
2018-05-11T19:30:09.792Z,30.03
2018-05-11T19:32:37.254Z,30.43
2018-05-11T19:35:04.704Z,28.43
2018-05-11T19:37:32.155Z,29.57
2018-05-11T19:39:59.613Z,29.10
2018-05-11T19:42:27.128Z,29.30
2018-05-11T19:44:54.502Z,31.83
2018-05-11T19:47:22.744Z,28.30
2018-05-11T19:49:50.216Z,28.97
2018-05-11T19:52:18.432Z,28.33
2018-05-11T19:54:45.889Z,31.87
2018-05-11T19:57:13.381Z,28.87
2018-05-11T19:59:41.566Z,31.90
2018-05-11T20:02:09.010Z,26.83
2018-05-11T20:04:36.538Z,28.83
2018-05-11T20:07:03.917Z,30.37
2018-05-11T20:09:31.451Z,29.67
2018-05-11T20:11:58.894Z,30.83
2018-05-11T20:14:26.395Z,30.23
2018-05-11T20:16:53.882Z,30.50
2018-05-11T20:19:21.328Z,32.57
2018-05-11T20:21:48.785Z,33.23
2018-05-11T20:24:16.251Z,31.67
2018-05-11T20:26:44.476Z,32.63
2018-05-11T20:29:11.930Z,32.80
2018-05-11T20:31:39.371Z,33.00
2018-05-11T20:34:06.837Z,34.03
2018-05-11T20:36:35.050Z,33.20
2018-05-11T20:39:02.510Z,32.60
2018-05-11T20:41:29.971Z,34.53
2018-05-11T20:43:57.444Z,33.03
2018-05-11T20:46:25.635Z,33.60
2018-05-11T20:48:53.094Z,33.93
2018-05-11T20:51:20.550Z,35.60
2018-05-11T20:53:47.996Z,34.43
2018-05-11T20:56:15.454Z,31.83
2018-05-11T20:58:43.695Z,33.47
2018-05-11T21:01:11.155Z,32.77
2018-05-11T21:03:39.370Z,31.10
2018-05-11T21:06:06.845Z,30.60
2018-05-11T21:08:34.286Z,34.97
2018-05-11T21:11:01.745Z,34.97
2018-05-11T21:13:29.965Z,31.37
2018-05-11T21:15:57.422Z,34.93
2018-05-11T21:18:24.878Z,34.10
2018-05-11T21:20:52.332Z,36.70
2018-05-11T21:23:19.771Z,35.87
2018-05-11T21:25:47.250Z,106.20
2018-05-11T21:28:14.723Z,45.70
2018-05-11T21:30:42.194Z,35.23
2018-05-11T21:33:09.631Z,38.43
2018-05-11T21:35:37.088Z,35.77
2018-05-11T21:38:04.547Z,35.07
2018-05-11T21:40:32.771Z,36.13
2018-05-11T21:43:00.293Z,34.80
2018-05-11T21:45:27.833Z,36.37
2018-05-11T21:47:55.312Z,34.73
2018-05-11T21:50:22.754Z,35.43
2018-05-11T21:52:50.228Z,33.20
2018-05-11T21:55:18.438Z,37.23
2018-05-11T21:57:45.908Z,37.90
2018-05-11T22:00:13.366Z,35.43
2018-05-11T22:02:41.591Z,34.37
2018-05-11T22:05:09.030Z,38.33
2018-05-11T22:07:36.483Z,37.50
2018-05-11T22:10:03.939Z,35.70
2018-05-11T22:12:31.394Z,42.23
2018-05-11T22:15:00.437Z,34.23
2018-05-11T22:17:27.866Z,34.77
2018-05-11T22:19:55.313Z,36.27
2018-05-11T22:22:22.770Z,36.20
2018-05-11T22:24:50.223Z,37.77
2018-05-11T22:27:17.674Z,35.60
2018-05-11T22:29:45.134Z,34.40
2018-05-11T22:32:13.335Z,39.90
2018-05-11T22:34:40.787Z,35.50
2018-05-11T22:37:09.245Z,35.07
2018-05-11T22:39:36.716Z,38.27
2018-05-11T22:42:04.170Z,39.00
2018-05-11T22:44:31.623Z,34.53
2018-05-11T22:46:59.079Z,37.50
2018-05-11T22:49:27.317Z,36.10
2018-05-11T22:51:54.769Z,35.33
2018-05-11T22:54:22.237Z,37.30
2018-05-11T22:56:50.446Z,38.53
2018-05-11T22:59:17.888Z,37.33
2018-05-11T23:01:46.104Z,39.43
2018-05-11T23:04:13.536Z,39.30
2018-05-11T23:06:41.770Z,42.97
2018-05-11T23:09:09.226Z,35.90
2018-05-11T23:11:36.739Z,38.10
2018-05-11T23:14:04.853Z,36.67
2018-05-11T23:16:32.318Z,37.43
2018-05-11T23:18:59.774Z,35.87
2018-05-11T23:21:27.231Z,37.80
2018-05-11T23:23:54.688Z,37.63
2018-05-11T23:26:22.150Z,39.57
2018-05-11T23:28:50.370Z,37.33
2018-05-11T23:31:17.893Z,37.57
2018-05-11T23:33:45.351Z,37.07
2018-05-11T23:36:12.818Z,36.40
2018-05-11T23:38:40.274Z,37.93
2018-05-11T23:41:07.750Z,34.13
2018-05-11T23:43:35.198Z,34.13
2018-05-11T23:46:02.681Z,35.80
2018-05-11T23:48:30.176Z,34.10
2018-05-11T23:50:58.417Z,37.20
2018-05-11T23:53:26.642Z,38.57
2018-05-11T23:55:54.085Z,36.40
2018-05-11T23:58:21.541Z,37.70
